sensor_id;sensor_type;location;lat;lon;timestamp;P1;durP1;ratioP1;P2;durP2;ratioP2
69203;SDS011;56317;27.658;85.326;2022-09-14T00:01:24;13.98;;;4.90;;
69203;SDS011;56317;27.658;85.326;2022-09-14T00:03:55;18.23;;;6.43;;
69203;SDS011;56317;27.658;85.326;2022-09-14T00:06:24;17.77;;;6.32;;
69203;SDS011;56317;27.658;85.326;2022-09-14T00:08:53;19.48;;;5.25;;
69203;SDS011;56317;27.658;85.326;2022-09-14T00:11:21;31.52;;;5.45;;
69203;SDS011;56317;27.658;85.326;2022-09-14T00:13:50;15.18;;;4.90;;
69203;SDS011;56317;27.658;85.326;2022-09-14T00:16:21;14.55;;;4.45;;
69203;SDS011;56317;27.658;85.326;2022-09-14T00:18:51;24.20;;;6.57;;
69203;SDS011;56317;27.658;85.326;2022-09-14T00:21:20;31.52;;;6.72;;
69203;SDS011;56317;27.658;85.326;2022-09-14T00:23:49;24.58;;;6.50;;
69203;SDS011;56317;27.658;85.326;2022-09-14T00:26:17;17.38;;;5.53;;
69203;SDS011;56317;27.658;85.326;2022-09-14T00:28:47;23.48;;;5.82;;
69203;SDS011;56317;27.658;85.326;2022-09-14T00:31:15;25.77;;;6.10;;
69203;SDS011;56317;27.658;85.326;2022-09-14T00:33:44;21.63;;;5.47;;
69203;SDS011;56317;27.658;85.326;2022-09-14T00:36:13;13.70;;;4.38;;
69203;SDS011;56317;27.658;85.326;2022-09-14T00:38:43;20.67;;;6.15;;
69203;SDS011;56317;27.658;85.326;2022-09-14T00:41:13;28.67;;;6.50;;
69203;SDS011;56317;27.658;85.326;2022-09-14T00:46:24;18.92;;;7.90;;
69203;SDS011;56317;27.658;85.326;2022-09-14T00:48:53;25.25;;;8.10;;
69203;SDS011;56317;27.658;85.326;2022-09-14T00:53:52;17.15;;;8.43;;
69203;SDS011;56317;27.658;85.326;2022-09-14T00:56:19;24.23;;;9.23;;
69203;SDS011;56317;27.658;85.326;2022-09-14T00:58:48;20.90;;;9.23;;
69203;SDS011;56317;27.658;85.326;2022-09-14T01:01:16;25.08;;;9.43;;
69203;SDS011;56317;27.658;85.326;2022-09-14T01:03:44;21.38;;;8.90;;
69203;SDS011;56317;27.658;85.326;2022-09-14T01:06:31;21.48;;;8.82;;
69203;SDS011;56317;27.658;85.326;2022-09-14T01:22:50;16.02;;;7.78;;
69203;SDS011;56317;27.658;85.326;2022-09-14T01:27:52;15.93;;;5.63;;
69203;SDS011;56317;27.658;85.326;2022-09-14T01:30:25;15.30;;;6.68;;
69203;SDS011;56317;27.658;85.326;2022-09-14T01:33:16;8.50;;;5.50;;
69203;SDS011;56317;27.658;85.326;2022-09-14T01:35:54;16.73;;;6.30;;
69203;SDS011;56317;27.658;85.326;2022-09-14T01:41:05;14.45;;;6.97;;
69203;SDS011;56317;27.658;85.326;2022-09-14T01:43:37;12.35;;;7.15;;
69203;SDS011;56317;27.658;85.326;2022-09-14T01:46:13;18.95;;;7.30;;
69203;SDS011;56317;27.658;85.326;2022-09-14T01:48:53;21.65;;;6.57;;
69203;SDS011;56317;27.658;85.326;2022-09-14T01:51:28;15.68;;;5.40;;
69203;SDS011;56317;27.658;85.326;2022-09-14T01:54:26;9.93;;;5.50;;
69203;SDS011;56317;27.658;85.326;2022-09-14T01:57:20;9.07;;;4.72;;
69203;SDS011;56317;27.658;85.326;2022-09-14T01:59:45;12.27;;;5.25;;
69203;SDS011;56317;27.658;85.326;2022-09-14T02:02:16;10.33;;;5.10;;
69203;SDS011;56317;27.658;85.326;2022-09-14T02:07:55;15.82;;;5.60;;
69203;SDS011;56317;27.658;85.326;2022-09-14T02:10:23;12.02;;;5.78;;
69203;SDS011;56317;27.658;85.326;2022-09-14T02:12:51;9.38;;;5.30;;
69203;SDS011;56317;27.658;85.326;2022-09-14T02:15:20;12.77;;;5.90;;
69203;SDS011;56317;27.658;85.326;2022-09-14T02:17:48;9.38;;;5.95;;
69203;SDS011;56317;27.658;85.326;2022-09-14T02:26:04;9.65;;;5.72;;
69203;SDS011;56317;27.658;85.326;2022-09-14T02:28:32;9.75;;;5.30;;
69203;SDS011;56317;27.658;85.326;2022-09-14T02:31:07;6.18;;;3.90;;
69203;SDS011;56317;27.658;85.326;2022-09-14T02:37:12;5.95;;;3.03;;
69203;SDS011;56317;27.658;85.326;2022-09-14T02:40:00;6.25;;;3.60;;
69203;SDS011;56317;27.658;85.326;2022-09-14T02:48:17;8.30;;;4.63;;
69203;SDS011;56317;27.658;85.326;2022-09-14T02:53:39;12.50;;;6.00;;
69203;SDS011;56317;27.658;85.326;2022-09-14T02:56:22;11.13;;;5.30;;
69203;SDS011;56317;27.658;85.326;2022-09-14T02:58:51;10.82;;;5.25;;
69203;SDS011;56317;27.658;85.326;2022-09-14T03:01:19;7.50;;;3.88;;
69203;SDS011;56317;27.658;85.326;2022-09-14T03:03:48;8.70;;;3.72;;
69203;SDS011;56317;27.658;85.326;2022-09-14T03:06:16;7.85;;;3.40;;
69203;SDS011;56317;27.658;85.326;2022-09-14T03:08:43;8.63;;;3.20;;
69203;SDS011;56317;27.658;85.326;2022-09-14T03:11:11;6.22;;;3.13;;
69203;SDS011;56317;27.658;85.326;2022-09-14T03:13:38;5.75;;;2.40;;
69203;SDS011;56317;27.658;85.326;2022-09-14T03:16:06;4.85;;;2.78;;
69203;SDS011;56317;27.658;85.326;2022-09-14T03:18:35;6.80;;;2.50;;
69203;SDS011;56317;27.658;85.326;2022-09-14T03:21:05;8.95;;;2.90;;
69203;SDS011;56317;27.658;85.326;2022-09-14T03:23:43;13.50;;;3.00;;
69203;SDS011;56317;27.658;85.326;2022-09-14T03:26:15;7.93;;;2.60;;
69203;SDS011;56317;27.658;85.326;2022-09-14T03:28:44;5.55;;;1.90;;
69203;SDS011;56317;27.658;85.326;2022-09-14T03:31:19;6.03;;;2.53;;
69203;SDS011;56317;27.658;85.326;2022-09-14T03:33:51;6.50;;;1.92;;
69203;SDS011;56317;27.658;85.326;2022-09-14T03:36:22;6.72;;;2.55;;
69203;SDS011;56317;27.658;85.326;2022-09-14T03:38:52;3.38;;;1.92;;
69203;SDS011;56317;27.658;85.326;2022-09-14T03:41:21;11.07;;;2.50;;
69203;SDS011;56317;27.658;85.326;2022-09-14T03:43:49;3.42;;;1.70;;
69203;SDS011;56317;27.658;85.326;2022-09-14T03:46:20;5.00;;;1.80;;
69203;SDS011;56317;27.658;85.326;2022-09-14T03:48:49;4.28;;;1.70;;
69203;SDS011;56317;27.658;85.326;2022-09-14T03:51:16;5.65;;;2.40;;
69203;SDS011;56317;27.658;85.326;2022-09-14T03:53:44;4.47;;;1.85;;
69203;SDS011;56317;27.658;85.326;2022-09-14T03:56:13;6.55;;;2.40;;
69203;SDS011;56317;27.658;85.326;2022-09-14T03:58:44;7.18;;;2.45;;
69203;SDS011;56317;27.658;85.326;2022-09-14T04:01:13;3.92;;;2.28;;
69203;SDS011;56317;27.658;85.326;2022-09-14T04:03:42;6.65;;;2.33;;
69203;SDS011;56317;27.658;85.326;2022-09-14T04:06:10;9.43;;;3.38;;
69203;SDS011;56317;27.658;85.326;2022-09-14T04:08:39;7.05;;;2.65;;
69203;SDS011;56317;27.658;85.326;2022-09-14T04:11:14;5.38;;;2.40;;
69203;SDS011;56317;27.658;85.326;2022-09-14T04:13:43;4.55;;;2.28;;
69203;SDS011;56317;27.658;85.326;2022-09-14T04:16:12;7.18;;;2.70;;
69203;SDS011;56317;27.658;85.326;2022-09-14T04:18:40;6.90;;;2.42;;
69203;SDS011;56317;27.658;85.326;2022-09-14T04:21:15;5.68;;;2.40;;
69203;SDS011;56317;27.658;85.326;2022-09-14T04:23:44;4.97;;;2.30;;
69203;SDS011;56317;27.658;85.326;2022-09-14T04:26:12;7.38;;;2.75;;
69203;SDS011;56317;27.658;85.326;2022-09-14T04:28:43;4.70;;;2.42;;
69203;SDS011;56317;27.658;85.326;2022-09-14T04:31:11;7.07;;;2.65;;
69203;SDS011;56317;27.658;85.326;2022-09-14T04:33:40;12.25;;;3.08;;
69203;SDS011;56317;27.658;85.326;2022-09-14T04:36:12;9.52;;;2.80;;
69203;SDS011;56317;27.658;85.326;2022-09-14T04:38:41;11.38;;;2.95;;
69203;SDS011;56317;27.658;85.326;2022-09-14T04:41:16;9.27;;;3.10;;
69203;SDS011;56317;27.658;85.326;2022-09-14T04:43:48;9.45;;;2.58;;
69203;SDS011;56317;27.658;85.326;2022-09-14T04:46:20;6.90;;;3.20;;
69203;SDS011;56317;27.658;85.326;2022-09-14T04:48:49;9.52;;;3.53;;
69203;SDS011;56317;27.658;85.326;2022-09-14T04:51:20;9.10;;;4.53;;
69203;SDS011;56317;27.658;85.326;2022-09-14T04:53:50;12.65;;;3.75;;
69203;SDS011;56317;27.658;85.326;2022-09-14T04:56:19;6.72;;;3.08;;
69203;SDS011;56317;27.658;85.326;2022-09-14T04:58:49;6.63;;;3.90;;
69203;SDS011;56317;27.658;85.326;2022-09-14T05:01:27;7.75;;;3.22;;
69203;SDS011;56317;27.658;85.326;2022-09-14T05:03:59;7.70;;;3.67;;
69203;SDS011;56317;27.658;85.326;2022-09-14T05:06:28;6.57;;;3.40;;
69203;SDS011;56317;27.658;85.326;2022-09-14T05:08:56;10.67;;;3.87;;
69203;SDS011;56317;27.658;85.326;2022-09-14T05:11:26;7.20;;;3.15;;
69203;SDS011;56317;27.658;85.326;2022-09-14T05:13:55;8.32;;;3.63;;
69203;SDS011;56317;27.658;85.326;2022-09-14T05:16:25;11.43;;;3.97;;
69203;SDS011;56317;27.658;85.326;2022-09-14T05:18:57;9.98;;;4.22;;
69203;SDS011;56317;27.658;85.326;2022-09-14T05:21:26;6.82;;;3.58;;
69203;SDS011;56317;27.658;85.326;2022-09-14T05:23:56;9.35;;;3.53;;
69203;SDS011;56317;27.658;85.326;2022-09-14T05:26:32;8.43;;;4.22;;
69203;SDS011;56317;27.658;85.326;2022-09-14T05:29:00;7.18;;;3.97;;
69203;SDS011;56317;27.658;85.326;2022-09-14T05:31:28;12.95;;;5.45;;
69203;SDS011;56317;27.658;85.326;2022-09-14T05:33:59;7.55;;;3.78;;
69203;SDS011;56317;27.658;85.326;2022-09-14T05:36:26;9.43;;;2.97;;
69203;SDS011;56317;27.658;85.326;2022-09-14T05:38:54;8.70;;;2.33;;
69203;SDS011;56317;27.658;85.326;2022-09-14T05:41:25;4.25;;;1.95;;
69203;SDS011;56317;27.658;85.326;2022-09-14T05:43:52;4.47;;;2.08;;
69203;SDS011;56317;27.658;85.326;2022-09-14T05:46:19;7.55;;;2.80;;
69203;SDS011;56317;27.658;85.326;2022-09-14T05:48:50;7.30;;;2.40;;
69203;SDS011;56317;27.658;85.326;2022-09-14T05:51:21;12.20;;;3.00;;
69203;SDS011;56317;27.658;85.326;2022-09-14T05:53:50;5.45;;;2.33;;
69203;SDS011;56317;27.658;85.326;2022-09-14T05:56:22;6.60;;;2.80;;
69203;SDS011;56317;27.658;85.326;2022-09-14T05:58:51;9.63;;;2.88;;
69203;SDS011;56317;27.658;85.326;2022-09-14T06:01:20;5.85;;;1.90;;
69203;SDS011;56317;27.658;85.326;2022-09-14T06:03:49;8.65;;;3.13;;
69203;SDS011;56317;27.658;85.326;2022-09-14T06:06:19;9.68;;;3.92;;
69203;SDS011;56317;27.658;85.326;2022-09-14T06:08:48;9.82;;;2.70;;
69203;SDS011;56317;27.658;85.326;2022-09-14T06:11:18;8.57;;;2.38;;
69203;SDS011;56317;27.658;85.326;2022-09-14T06:13:46;6.38;;;2.17;;
69203;SDS011;56317;27.658;85.326;2022-09-14T06:16:15;8.52;;;2.90;;
69203;SDS011;56317;27.658;85.326;2022-09-14T06:18:44;5.20;;;2.05;;
69203;SDS011;56317;27.658;85.326;2022-09-14T06:21:13;6.50;;;2.28;;
69203;SDS011;56317;27.658;85.326;2022-09-14T06:23:44;10.02;;;2.60;;
69203;SDS011;56317;27.658;85.326;2022-09-14T06:26:12;5.95;;;1.90;;
69203;SDS011;56317;27.658;85.326;2022-09-14T06:28:40;5.00;;;2.35;;
69203;SDS011;56317;27.658;85.326;2022-09-14T06:31:10;5.10;;;2.00;;
69203;SDS011;56317;27.658;85.326;2022-09-14T06:33:41;8.40;;;2.13;;
69203;SDS011;56317;27.658;85.326;2022-09-14T06:36:10;7.32;;;2.50;;
69203;SDS011;56317;27.658;85.326;2022-09-14T06:38:39;5.10;;;1.73;;
69203;SDS011;56317;27.658;85.326;2022-09-14T06:41:08;7.97;;;2.60;;
69203;SDS011;56317;27.658;85.326;2022-09-14T06:43:38;7.95;;;2.13;;
69203;SDS011;56317;27.658;85.326;2022-09-14T06:48:37;9.00;;;2.08;;
69203;SDS011;56317;27.658;85.326;2022-09-14T06:51:14;3.08;;;1.73;;
69203;SDS011;56317;27.658;85.326;2022-09-14T06:53:46;3.60;;;1.98;;
69203;SDS011;56317;27.658;85.326;2022-09-14T06:56:15;7.68;;;2.63;;
69203;SDS011;56317;27.658;85.326;2022-09-14T06:58:43;6.07;;;2.28;;
69203;SDS011;56317;27.658;85.326;2022-09-14T07:01:11;6.30;;;3.10;;
69203;SDS011;56317;27.658;85.326;2022-09-14T07:03:41;7.68;;;3.00;;
69203;SDS011;56317;27.658;85.326;2022-09-14T07:06:15;5.22;;;2.72;;
69203;SDS011;56317;27.658;85.326;2022-09-14T07:08:45;6.00;;;2.53;;
69203;SDS011;56317;27.658;85.326;2022-09-14T07:11:14;8.52;;;3.30;;
69203;SDS011;56317;27.658;85.326;2022-09-14T07:13:44;5.15;;;2.45;;
69203;SDS011;56317;27.658;85.326;2022-09-14T07:16:12;4.78;;;1.90;;
69203;SDS011;56317;27.658;85.326;2022-09-14T07:18:40;6.53;;;2.78;;
69203;SDS011;56317;27.658;85.326;2022-09-14T07:21:08;5.22;;;1.90;;
69203;SDS011;56317;27.658;85.326;2022-09-14T07:23:46;10.35;;;3.10;;
69203;SDS011;56317;27.658;85.326;2022-09-14T07:26:17;6.13;;;2.67;;
69203;SDS011;56317;27.658;85.326;2022-09-14T07:28:47;4.07;;;2.42;;
69203;SDS011;56317;27.658;85.326;2022-09-14T07:31:22;3.88;;;2.13;;
69203;SDS011;56317;27.658;85.326;2022-09-14T07:33:55;3.70;;;2.10;;
69203;SDS011;56317;27.658;85.326;2022-09-14T07:36:24;4.22;;;2.08;;
69203;SDS011;56317;27.658;85.326;2022-09-14T07:38:52;4.03;;;2.17;;
69203;SDS011;56317;27.658;85.326;2022-09-14T07:41:21;9.18;;;2.40;;
69203;SDS011;56317;27.658;85.326;2022-09-14T07:43:50;8.00;;;2.92;;
69203;SDS011;56317;27.658;85.326;2022-09-14T07:46:19;7.47;;;2.92;;
69203;SDS011;56317;27.658;85.326;2022-09-14T07:48:47;6.82;;;2.50;;
69203;SDS011;56317;27.658;85.326;2022-09-14T07:51:20;4.32;;;2.15;;
69203;SDS011;56317;27.658;85.326;2022-09-14T07:53:48;8.13;;;2.00;;
69203;SDS011;56317;27.658;85.326;2022-09-14T07:56:16;3.60;;;1.80;;
69203;SDS011;56317;27.658;85.326;2022-09-14T07:58:44;12.35;;;3.05;;
69203;SDS011;56317;27.658;85.326;2022-09-14T08:01:12;4.63;;;1.80;;
69203;SDS011;56317;27.658;85.326;2022-09-14T08:03:43;7.78;;;2.13;;
69203;SDS011;56317;27.658;85.326;2022-09-14T08:06:15;7.70;;;3.00;;
69203;SDS011;56317;27.658;85.326;2022-09-14T08:08:48;7.07;;;2.60;;
69203;SDS011;56317;27.658;85.326;2022-09-14T08:11:19;8.80;;;2.90;;
69203;SDS011;56317;27.658;85.326;2022-09-14T08:13:50;14.68;;;5.13;;
69203;SDS011;56317;27.658;85.326;2022-09-14T08:16:20;5.55;;;2.65;;
69203;SDS011;56317;27.658;85.326;2022-09-14T08:18:52;21.60;;;5.70;;
69203;SDS011;56317;27.658;85.326;2022-09-14T08:21:21;8.50;;;2.72;;
69203;SDS011;56317;27.658;85.326;2022-09-14T08:23:49;10.68;;;2.92;;
69203;SDS011;56317;27.658;85.326;2022-09-14T08:26:20;9.88;;;2.88;;
69203;SDS011;56317;27.658;85.326;2022-09-14T08:28:49;5.45;;;2.20;;
69203;SDS011;56317;27.658;85.326;2022-09-14T08:31:21;7.22;;;2.78;;
69203;SDS011;56317;27.658;85.326;2022-09-14T08:33:50;3.60;;;1.33;;
69203;SDS011;56317;27.658;85.326;2022-09-14T08:36:28;6.65;;;1.60;;
69203;SDS011;56317;27.658;85.326;2022-09-14T08:38:57;7.03;;;1.85;;
69203;SDS011;56317;27.658;85.326;2022-09-14T08:46:59;3.53;;;1.48;;
69203;SDS011;56317;27.658;85.326;2022-09-14T09:11:26;3.30;;;1.20;;
69203;SDS011;56317;27.658;85.326;2022-09-14T09:20:17;4.82;;;1.58;;
69203;SDS011;56317;27.658;85.326;2022-09-14T09:23:13;6.50;;;1.90;;
69203;SDS011;56317;27.658;85.326;2022-09-14T09:28:18;3.78;;;1.67;;
69203;SDS011;56317;27.658;85.326;2022-09-14T09:30:47;7.78;;;2.20;;
69203;SDS011;56317;27.658;85.326;2022-09-14T09:33:16;6.28;;;1.92;;
69203;SDS011;56317;27.658;85.326;2022-09-14T09:35:48;6.07;;;2.70;;
69203;SDS011;56317;27.658;85.326;2022-09-14T09:38:18;11.18;;;3.47;;
69203;SDS011;56317;27.658;85.326;2022-09-14T09:46:27;9.50;;;3.38;;
69203;SDS011;56317;27.658;85.326;2022-09-14T09:48:57;5.03;;;2.35;;
69203;SDS011;56317;27.658;85.326;2022-09-14T09:51:29;7.00;;;2.80;;
69203;SDS011;56317;27.658;85.326;2022-09-14T09:54:10;5.15;;;2.20;;
69203;SDS011;56317;27.658;85.326;2022-09-14T09:56:52;6.55;;;2.28;;
69203;SDS011;56317;27.658;85.326;2022-09-14T09:59:42;9.57;;;3.20;;
69203;SDS011;56317;27.658;85.326;2022-09-14T10:02:21;4.60;;;1.85;;
69203;SDS011;56317;27.658;85.326;2022-09-14T10:07:25;8.85;;;2.33;;
69203;SDS011;56317;27.658;85.326;2022-09-14T10:10:12;6.60;;;2.15;;
69203;SDS011;56317;27.658;85.326;2022-09-14T10:12:45;8.52;;;3.30;;
69203;SDS011;56317;27.658;85.326;2022-09-14T10:15:21;12.32;;;2.95;;
69203;SDS011;56317;27.658;85.326;2022-09-14T10:18:04;4.95;;;2.40;;
69203;SDS011;56317;27.658;85.326;2022-09-14T10:20:36;10.02;;;3.03;;
69203;SDS011;56317;27.658;85.326;2022-09-14T10:25:47;6.10;;;2.05;;
69203;SDS011;56317;27.658;85.326;2022-09-14T10:28:20;5.93;;;2.10;;
69203;SDS011;56317;27.658;85.326;2022-09-14T10:30:58;6.68;;;2.30;;
69203;SDS011;56317;27.658;85.326;2022-09-14T10:33:32;8.75;;;2.13;;
69203;SDS011;56317;27.658;85.326;2022-09-14T10:46:44;4.10;;;2.03;;
69203;SDS011;56317;27.658;85.326;2022-09-14T10:49:38;4.63;;;2.58;;
69203;SDS011;56317;27.658;85.326;2022-09-14T10:52:24;7.22;;;3.20;;
69203;SDS011;56317;27.658;85.326;2022-09-14T11:00:15;7.07;;;2.57;;
69203;SDS011;56317;27.658;85.326;2022-09-14T11:05:43;10.68;;;4.00;;
69203;SDS011;56317;27.658;85.326;2022-09-14T11:08:44;5.45;;;2.30;;
69203;SDS011;56317;27.658;85.326;2022-09-14T11:14:15;9.15;;;2.60;;
69203;SDS011;56317;27.658;85.326;2022-09-14T11:16:58;8.00;;;2.28;;
69203;SDS011;56317;27.658;85.326;2022-09-14T11:19:39;12.43;;;3.78;;
69203;SDS011;56317;27.658;85.326;2022-09-14T11:28:37;5.40;;;2.55;;
69203;SDS011;56317;27.658;85.326;2022-09-14T11:36:46;8.38;;;2.75;;
69203;SDS011;56317;27.658;85.326;2022-09-14T11:39:25;16.00;;;3.65;;
69203;SDS011;56317;27.658;85.326;2022-09-14T11:44:36;9.45;;;3.20;;
69203;SDS011;56317;27.658;85.326;2022-09-14T11:47:06;9.48;;;3.28;;
69203;SDS011;56317;27.658;85.326;2022-09-14T11:52:41;10.05;;;2.92;;
69203;SDS011;56317;27.658;85.326;2022-09-14T11:55:09;7.78;;;2.67;;
69203;SDS011;56317;27.658;85.326;2022-09-14T11:57:44;6.43;;;2.95;;
69203;SDS011;56317;27.658;85.326;2022-09-14T12:05:38;7.47;;;2.90;;
69203;SDS011;56317;27.658;85.326;2022-09-14T12:14:11;11.10;;;3.17;;
69203;SDS011;56317;27.658;85.326;2022-09-14T12:19:50;10.95;;;3.55;;
69203;SDS011;56317;27.658;85.326;2022-09-14T12:22:33;12.55;;;3.25;;
69203;SDS011;56317;27.658;85.326;2022-09-14T12:27:38;10.90;;;4.00;;
69203;SDS011;56317;27.658;85.326;2022-09-14T12:32:59;10.52;;;4.40;;
69203;SDS011;56317;27.658;85.326;2022-09-14T12:35:38;9.57;;;3.90;;
69203;SDS011;56317;27.658;85.326;2022-09-14T12:41:41;9.13;;;4.18;;
69203;SDS011;56317;27.658;85.326;2022-09-14T12:51:15;13.32;;;4.50;;
69203;SDS011;56317;27.658;85.326;2022-09-14T13:01:37;11.30;;;4.85;;
69203;SDS011;56317;27.658;85.326;2022-09-14T13:04:13;13.38;;;6.03;;
69203;SDS011;56317;27.658;85.326;2022-09-14T13:06:49;13.90;;;5.50;;
69203;SDS011;56317;27.658;85.326;2022-09-14T13:09:21;16.20;;;5.60;;
69203;SDS011;56317;27.658;85.326;2022-09-14T13:12:09;9.18;;;4.97;;
69203;SDS011;56317;27.658;85.326;2022-09-14T13:14:49;11.80;;;5.18;;
69203;SDS011;56317;27.658;85.326;2022-09-14T13:17:21;11.93;;;4.90;;
69203;SDS011;56317;27.658;85.326;2022-09-14T13:19:58;12.48;;;5.45;;
69203;SDS011;56317;27.658;85.326;2022-09-14T13:22:31;14.82;;;5.93;;
69203;SDS011;56317;27.658;85.326;2022-09-14T13:24:59;10.25;;;5.10;;
69203;SDS011;56317;27.658;85.326;2022-09-14T13:32:45;9.98;;;4.32;;
69203;SDS011;56317;27.658;85.326;2022-09-14T13:35:42;13.10;;;4.35;;
69203;SDS011;56317;27.658;85.326;2022-09-14T13:38:23;9.07;;;3.63;;
69203;SDS011;56317;27.658;85.326;2022-09-14T13:40:53;6.38;;;3.15;;
69203;SDS011;56317;27.658;85.326;2022-09-14T13:43:27;8.65;;;3.92;;
69203;SDS011;56317;27.658;85.326;2022-09-14T13:45:55;8.68;;;3.20;;
69203;SDS011;56317;27.658;85.326;2022-09-14T13:48:23;9.60;;;2.95;;
69203;SDS011;56317;27.658;85.326;2022-09-14T13:50:50;4.70;;;2.83;;
69203;SDS011;56317;27.658;85.326;2022-09-14T13:53:37;4.00;;;2.17;;
69203;SDS011;56317;27.658;85.326;2022-09-14T13:58:49;5.97;;;2.30;;
69203;SDS011;56317;27.658;85.326;2022-09-14T14:01:37;3.65;;;2.00;;
69203;SDS011;56317;27.658;85.326;2022-09-14T14:04:27;4.30;;;2.40;;
69203;SDS011;56317;27.658;85.326;2022-09-14T14:07:07;6.93;;;2.65;;
69203;SDS011;56317;27.658;85.326;2022-09-14T14:09:53;3.78;;;1.90;;
69203;SDS011;56317;27.658;85.326;2022-09-14T14:15:02;4.85;;;1.80;;
69203;SDS011;56317;27.658;85.326;2022-09-14T14:17:37;4.55;;;1.65;;
69203;SDS011;56317;27.658;85.326;2022-09-14T14:22:59;5.15;;;2.00;;
69203;SDS011;56317;27.658;85.326;2022-09-14T14:25:52;7.93;;;2.58;;
69203;SDS011;56317;27.658;85.326;2022-09-14T14:28:31;6.45;;;2.25;;
69203;SDS011;56317;27.658;85.326;2022-09-14T14:30:59;5.40;;;2.50;;
69203;SDS011;56317;27.658;85.326;2022-09-14T14:33:29;5.32;;;1.95;;
69203;SDS011;56317;27.658;85.326;2022-09-14T14:35:56;8.05;;;2.33;;
69203;SDS011;56317;27.658;85.326;2022-09-14T14:38:24;6.68;;;1.90;;
69203;SDS011;56317;27.658;85.326;2022-09-14T14:40:51;5.18;;;2.30;;
69203;SDS011;56317;27.658;85.326;2022-09-14T14:43:24;5.55;;;1.30;;
69203;SDS011;56317;27.658;85.326;2022-09-14T14:46:01;6.65;;;2.03;;
69203;SDS011;56317;27.658;85.326;2022-09-14T14:48:30;5.47;;;1.70;;
69203;SDS011;56317;27.658;85.326;2022-09-14T14:50:58;3.42;;;0.95;;
69203;SDS011;56317;27.658;85.326;2022-09-14T14:53:26;2.67;;;1.20;;
69203;SDS011;56317;27.658;85.326;2022-09-14T14:55:53;3.55;;;1.55;;
69203;SDS011;56317;27.658;85.326;2022-09-14T14:58:21;3.85;;;1.52;;
69203;SDS011;56317;27.658;85.326;2022-09-14T15:00:49;4.25;;;1.67;;
69203;SDS011;56317;27.658;85.326;2022-09-14T15:03:16;3.97;;;1.40;;
69203;SDS011;56317;27.658;85.326;2022-09-14T15:05:44;6.05;;;1.50;;
69203;SDS011;56317;27.658;85.326;2022-09-14T15:08:13;5.70;;;1.33;;
69203;SDS011;56317;27.658;85.326;2022-09-14T15:10:42;4.55;;;1.85;;
69203;SDS011;56317;27.658;85.326;2022-09-14T15:13:09;4.78;;;2.15;;
69203;SDS011;56317;27.658;85.326;2022-09-14T15:15:38;4.28;;;1.50;;
69203;SDS011;56317;27.658;85.326;2022-09-14T15:18:09;6.03;;;1.65;;
69203;SDS011;56317;27.658;85.326;2022-09-14T15:20:36;3.40;;;1.50;;
69203;SDS011;56317;27.658;85.326;2022-09-14T15:23:03;5.60;;;3.17;;
69203;SDS011;56317;27.658;85.326;2022-09-14T15:25:31;3.63;;;1.70;;
69203;SDS011;56317;27.658;85.326;2022-09-14T15:27:58;5.70;;;1.80;;
69203;SDS011;56317;27.658;85.326;2022-09-14T15:30:25;3.80;;;1.73;;
69203;SDS011;56317;27.658;85.326;2022-09-14T15:32:52;5.00;;;2.47;;
69203;SDS011;56317;27.658;85.326;2022-09-14T15:35:20;4.88;;;3.20;;
69203;SDS011;56317;27.658;85.326;2022-09-14T15:37:47;3.42;;;1.77;;
69203;SDS011;56317;27.658;85.326;2022-09-14T15:40:14;4.78;;;1.83;;
69203;SDS011;56317;27.658;85.326;2022-09-14T15:42:41;3.97;;;1.80;;
69203;SDS011;56317;27.658;85.326;2022-09-14T15:45:09;2.28;;;1.50;;
69203;SDS011;56317;27.658;85.326;2022-09-14T15:47:37;4.32;;;2.03;;
69203;SDS011;56317;27.658;85.326;2022-09-14T15:50:07;6.45;;;2.28;;
69203;SDS011;56317;27.658;85.326;2022-09-14T15:52:36;4.13;;;2.10;;
69203;SDS011;56317;27.658;85.326;2022-09-14T15:55:04;5.45;;;2.17;;
69203;SDS011;56317;27.658;85.326;2022-09-14T15:57:33;5.60;;;2.25;;
69203;SDS011;56317;27.658;85.326;2022-09-14T16:00:00;4.90;;;2.13;;
69203;SDS011;56317;27.658;85.326;2022-09-14T16:02:29;3.67;;;1.65;;
69203;SDS011;56317;27.658;85.326;2022-09-14T16:04:57;3.95;;;1.67;;
69203;SDS011;56317;27.658;85.326;2022-09-14T16:07:24;3.33;;;1.75;;
69203;SDS011;56317;27.658;85.326;2022-09-14T16:09:53;4.25;;;2.15;;
69203;SDS011;56317;27.658;85.326;2022-09-14T16:12:21;3.15;;;1.70;;
69203;SDS011;56317;27.658;85.326;2022-09-14T16:14:48;2.90;;;1.58;;
69203;SDS011;56317;27.658;85.326;2022-09-14T16:17:15;4.18;;;2.00;;
69203;SDS011;56317;27.658;85.326;2022-09-14T16:19:42;3.85;;;1.88;;
69203;SDS011;56317;27.658;85.326;2022-09-14T16:22:09;5.72;;;3.20;;
69203;SDS011;56317;27.658;85.326;2022-09-14T16:24:36;5.90;;;2.65;;
69203;SDS011;56317;27.658;85.326;2022-09-14T16:27:04;4.07;;;2.40;;
69203;SDS011;56317;27.658;85.326;2022-09-14T16:29:31;5.50;;;2.58;;
69203;SDS011;56317;27.658;85.326;2022-09-14T16:31:58;6.82;;;2.33;;
69203;SDS011;56317;27.658;85.326;2022-09-14T16:34:26;6.32;;;2.70;;
69203;SDS011;56317;27.658;85.326;2022-09-14T16:36:54;4.35;;;2.33;;
69203;SDS011;56317;27.658;85.326;2022-09-14T16:39:24;6.38;;;2.45;;
69203;SDS011;56317;27.658;85.326;2022-09-14T16:41:53;4.90;;;2.53;;
69203;SDS011;56317;27.658;85.326;2022-09-14T16:44:22;5.68;;;2.35;;
69203;SDS011;56317;27.658;85.326;2022-09-14T16:46:51;3.55;;;2.20;;
69203;SDS011;56317;27.658;85.326;2022-09-14T16:49:20;3.80;;;2.08;;
69203;SDS011;56317;27.658;85.326;2022-09-14T16:51:47;5.32;;;2.28;;
69203;SDS011;56317;27.658;85.326;2022-09-14T16:54:18;5.45;;;2.35;;
69203;SDS011;56317;27.658;85.326;2022-09-14T16:56:47;3.50;;;2.10;;
69203;SDS011;56317;27.658;85.326;2022-09-14T16:59:15;4.30;;;2.75;;
69203;SDS011;56317;27.658;85.326;2022-09-14T17:01:43;4.63;;;2.72;;
69203;SDS011;56317;27.658;85.326;2022-09-14T17:04:15;5.32;;;3.20;;
69203;SDS011;56317;27.658;85.326;2022-09-14T17:06:46;4.88;;;2.85;;
69203;SDS011;56317;27.658;85.326;2022-09-14T17:09:16;5.00;;;2.92;;
69203;SDS011;56317;27.658;85.326;2022-09-14T17:11:45;5.82;;;3.72;;
69203;SDS011;56317;27.658;85.326;2022-09-14T17:14:14;5.38;;;3.50;;
69203;SDS011;56317;27.658;85.326;2022-09-14T17:16:42;5.75;;;3.13;;
69203;SDS011;56317;27.658;85.326;2022-09-14T17:19:10;5.22;;;3.05;;
69203;SDS011;56317;27.658;85.326;2022-09-14T17:21:38;5.40;;;3.03;;
69203;SDS011;56317;27.658;85.326;2022-09-14T17:24:06;4.82;;;2.97;;
69203;SDS011;56317;27.658;85.326;2022-09-14T17:26:35;12.30;;;3.55;;
69203;SDS011;56317;27.658;85.326;2022-09-14T17:29:02;6.03;;;2.40;;
69203;SDS011;56317;27.658;85.326;2022-09-14T17:31:32;4.55;;;2.70;;
69203;SDS011;56317;27.658;85.326;2022-09-14T17:34:02;7.15;;;3.53;;
69203;SDS011;56317;27.658;85.326;2022-09-14T17:36:30;9.13;;;3.03;;
69203;SDS011;56317;27.658;85.326;2022-09-14T17:39:00;7.30;;;3.08;;
69203;SDS011;56317;27.658;85.326;2022-09-14T17:41:29;4.75;;;2.90;;
69203;SDS011;56317;27.658;85.326;2022-09-14T17:44:01;7.80;;;3.88;;
69203;SDS011;56317;27.658;85.326;2022-09-14T17:46:30;7.57;;;3.20;;
69203;SDS011;56317;27.658;85.326;2022-09-14T17:48:58;7.05;;;3.10;;
69203;SDS011;56317;27.658;85.326;2022-09-14T17:51:28;5.45;;;2.60;;
69203;SDS011;56317;27.658;85.326;2022-09-14T17:53:56;7.97;;;3.22;;
69203;SDS011;56317;27.658;85.326;2022-09-14T17:56:26;6.03;;;3.28;;
69203;SDS011;56317;27.658;85.326;2022-09-14T17:58:58;5.85;;;3.35;;
69203;SDS011;56317;27.658;85.326;2022-09-14T18:01:30;5.38;;;3.20;;